sensor_id;sensor_type;location;lat;lon;timestamp;P1;durP1;ratioP1;P2;durP2;ratioP2
17253;SDS011;32542;52.832;13.816;2023-06-26T00:02:08;4.38;;;3.95;;
17253;SDS011;32542;52.832;13.816;2023-06-26T00:05:11;6.75;;;4.35;;
17253;SDS011;32542;52.832;13.816;2023-06-26T00:08:16;5.32;;;3.90;;
17253;SDS011;32542;52.832;13.816;2023-06-26T00:11:19;4.93;;;3.90;;
17253;SDS011;32542;52.832;13.816;2023-06-26T00:14:22;6.30;;;4.50;;
17253;SDS011;32542;52.832;13.816;2023-06-26T00:17:25;4.50;;;4.07;;
17253;SDS011;32542;52.832;13.816;2023-06-26T00:20:28;7.97;;;4.03;;
17253;SDS011;32542;52.832;13.816;2023-06-26T00:23:32;12.30;;;4.20;;
17253;SDS011;32542;52.832;13.816;2023-06-26T00:26:40;4.30;;;3.90;;
17253;SDS011;32542;52.832;13.816;2023-06-26T00:29:43;5.43;;;3.88;;
17253;SDS011;32542;52.832;13.816;2023-06-26T00:32:46;5.07;;;3.65;;
17253;SDS011;32542;52.832;13.816;2023-06-26T00:35:49;5.45;;;3.97;;
17253;SDS011;32542;52.832;13.816;2023-06-26T00:38:53;4.53;;;3.88;;
17253;SDS011;32542;52.832;13.816;2023-06-26T00:41:56;4.22;;;3.83;;
17253;SDS011;32542;52.832;13.816;2023-06-26T00:44:59;4.35;;;3.83;;
17253;SDS011;32542;52.832;13.816;2023-06-26T00:48:02;4.35;;;3.95;;
17253;SDS011;32542;52.832;13.816;2023-06-26T00:51:06;4.15;;;3.75;;
17253;SDS011;32542;52.832;13.816;2023-06-26T00:54:10;5.00;;;4.50;;
17253;SDS011;32542;52.832;13.816;2023-06-26T00:57:13;4.47;;;4.05;;
17253;SDS011;32542;52.832;13.816;2023-06-26T01:00:16;6.18;;;4.15;;
17253;SDS011;32542;52.832;13.816;2023-06-26T01:03:20;5.75;;;3.67;;
17253;SDS011;32542;52.832;13.816;2023-06-26T01:06:23;4.97;;;3.72;;
17253;SDS011;32542;52.832;13.816;2023-06-26T01:09:31;4.78;;;4.28;;
17253;SDS011;32542;52.832;13.816;2023-06-26T01:12:34;7.28;;;4.10;;
17253;SDS011;32542;52.832;13.816;2023-06-26T01:15:40;6.38;;;3.95;;
17253;SDS011;32542;52.832;13.816;2023-06-26T01:18:43;6.15;;;3.90;;
17253;SDS011;32542;52.832;13.816;2023-06-26T01:21:47;4.40;;;3.65;;
17253;SDS011;32542;52.832;13.816;2023-06-26T01:24:56;8.30;;;3.78;;
17253;SDS011;32542;52.832;13.816;2023-06-26T01:28:13;6.07;;;4.10;;
17253;SDS011;32542;52.832;13.816;2023-06-26T01:31:19;4.50;;;3.75;;
17253;SDS011;32542;52.832;13.816;2023-06-26T01:34:22;4.13;;;3.63;;
17253;SDS011;32542;52.832;13.816;2023-06-26T01:37:25;4.22;;;3.50;;
17253;SDS011;32542;52.832;13.816;2023-06-26T01:40:28;4.20;;;3.80;;
17253;SDS011;32542;52.832;13.816;2023-06-26T01:43:34;4.57;;;3.65;;
17253;SDS011;32542;52.832;13.816;2023-06-26T01:46:46;7.80;;;3.80;;
17253;SDS011;32542;52.832;13.816;2023-06-26T01:49:56;4.25;;;3.58;;
17253;SDS011;32542;52.832;13.816;2023-06-26T01:53:07;4.95;;;3.80;;
17253;SDS011;32542;52.832;13.816;2023-06-26T01:56:15;4.13;;;3.33;;
17253;SDS011;32542;52.832;13.816;2023-06-26T01:59:22;9.10;;;3.70;;
17253;SDS011;32542;52.832;13.816;2023-06-26T02:02:28;4.32;;;3.65;;
17253;SDS011;32542;52.832;13.816;2023-06-26T02:05:31;3.90;;;3.47;;
17253;SDS011;32542;52.832;13.816;2023-06-26T02:08:35;3.40;;;3.10;;
17253;SDS011;32542;52.832;13.816;2023-06-26T02:11:38;6.07;;;3.70;;
17253;SDS011;32542;52.832;13.816;2023-06-26T02:14:42;4.32;;;3.55;;
17253;SDS011;32542;52.832;13.816;2023-06-26T02:17:45;4.18;;;3.50;;
17253;SDS011;32542;52.832;13.816;2023-06-26T02:20:49;5.85;;;3.78;;
17253;SDS011;32542;52.832;13.816;2023-06-26T02:23:52;3.97;;;3.58;;
17253;SDS011;32542;52.832;13.816;2023-06-26T02:26:55;4.15;;;3.63;;
17253;SDS011;32542;52.832;13.816;2023-06-26T02:30:00;4.60;;;3.13;;
17253;SDS011;32542;52.832;13.816;2023-06-26T02:33:03;6.47;;;4.03;;
17253;SDS011;32542;52.832;13.816;2023-06-26T02:36:06;4.72;;;3.45;;
17253;SDS011;32542;52.832;13.816;2023-06-26T02:39:09;5.63;;;3.17;;
17253;SDS011;32542;52.832;13.816;2023-06-26T02:42:13;3.80;;;3.05;;
17253;SDS011;32542;52.832;13.816;2023-06-26T02:45:18;4.10;;;3.65;;
17253;SDS011;32542;52.832;13.816;2023-06-26T02:48:21;4.45;;;3.15;;
17253;SDS011;32542;52.832;13.816;2023-06-26T02:51:24;4.35;;;3.15;;
17253;SDS011;32542;52.832;13.816;2023-06-26T02:54:29;3.38;;;3.08;;
17253;SDS011;32542;52.832;13.816;2023-06-26T02:57:36;4.55;;;2.97;;
17253;SDS011;32542;52.832;13.816;2023-06-26T03:00:41;4.28;;;3.50;;
17253;SDS011;32542;52.832;13.816;2023-06-26T03:03:49;4.00;;;3.60;;
17253;SDS011;32542;52.832;13.816;2023-06-26T03:06:52;4.90;;;3.38;;
17253;SDS011;32542;52.832;13.816;2023-06-26T03:09:55;3.83;;;3.30;;
17253;SDS011;32542;52.832;13.816;2023-06-26T03:12:58;9.60;;;3.55;;
17253;SDS011;32542;52.832;13.816;2023-06-26T03:16:03;4.82;;;3.40;;
17253;SDS011;32542;52.832;13.816;2023-06-26T03:19:07;4.72;;;3.17;;
17253;SDS011;32542;52.832;13.816;2023-06-26T03:22:30;3.65;;;3.28;;
17253;SDS011;32542;52.832;13.816;2023-06-26T03:25:33;5.15;;;3.58;;
17253;SDS011;32542;52.832;13.816;2023-06-26T03:28:54;3.63;;;3.33;;
17253;SDS011;32542;52.832;13.816;2023-06-26T03:31:59;3.60;;;3.28;;
17253;SDS011;32542;52.832;13.816;2023-06-26T03:35:02;3.90;;;3.47;;
17253;SDS011;32542;52.832;13.816;2023-06-26T03:38:07;4.32;;;3.50;;
17253;SDS011;32542;52.832;13.816;2023-06-26T03:41:10;3.90;;;3.25;;
17253;SDS011;32542;52.832;13.816;2023-06-26T03:44:15;3.75;;;3.33;;
17253;SDS011;32542;52.832;13.816;2023-06-26T03:47:22;6.82;;;3.50;;
17253;SDS011;32542;52.832;13.816;2023-06-26T03:50:25;3.85;;;3.25;;
17253;SDS011;32542;52.832;13.816;2023-06-26T03:53:28;3.20;;;2.90;;
17253;SDS011;32542;52.832;13.816;2023-06-26T03:56:31;3.88;;;3.35;;
17253;SDS011;32542;52.832;13.816;2023-06-26T03:59:35;3.80;;;3.40;;
17253;SDS011;32542;52.832;13.816;2023-06-26T04:02:40;5.88;;;3.58;;
17253;SDS011;32542;52.832;13.816;2023-06-26T04:05:45;4.75;;;3.00;;
17253;SDS011;32542;52.832;13.816;2023-06-26T04:08:48;3.90;;;3.47;;
17253;SDS011;32542;52.832;13.816;2023-06-26T04:11:51;3.97;;;3.05;;
17253;SDS011;32542;52.832;13.816;2023-06-26T04:14:53;4.07;;;3.25;;
17253;SDS011;32542;52.832;13.816;2023-06-26T04:17:58;5.35;;;3.65;;
17253;SDS011;32542;52.832;13.816;2023-06-26T04:21:04;4.28;;;3.67;;
17253;SDS011;32542;52.832;13.816;2023-06-26T04:24:09;5.95;;;3.60;;
17253;SDS011;32542;52.832;13.816;2023-06-26T04:27:16;5.35;;;3.80;;
17253;SDS011;32542;52.832;13.816;2023-06-26T04:30:19;5.50;;;3.38;;
17253;SDS011;32542;52.832;13.816;2023-06-26T04:33:23;5.00;;;3.40;;
17253;SDS011;32542;52.832;13.816;2023-06-26T04:36:27;4.22;;;3.50;;
17253;SDS011;32542;52.832;13.816;2023-06-26T04:39:30;5.57;;;3.80;;
17253;SDS011;32542;52.832;13.816;2023-06-26T04:42:33;6.40;;;3.30;;
17253;SDS011;32542;52.832;13.816;2023-06-26T04:45:36;4.35;;;3.47;;
17253;SDS011;32542;52.832;13.816;2023-06-26T04:48:41;6.05;;;4.00;;
17253;SDS011;32542;52.832;13.816;2023-06-26T04:51:45;5.03;;;3.65;;
17253;SDS011;32542;52.832;13.816;2023-06-26T04:54:50;6.18;;;3.88;;
17253;SDS011;32542;52.832;13.816;2023-06-26T04:57:53;5.15;;;3.53;;
17253;SDS011;32542;52.832;13.816;2023-06-26T05:00:56;3.80;;;3.40;;
17253;SDS011;32542;52.832;13.816;2023-06-26T05:04:01;3.72;;;3.33;;
17253;SDS011;32542;52.832;13.816;2023-06-26T05:07:04;7.50;;;3.85;;
17253;SDS011;32542;52.832;13.816;2023-06-26T05:10:07;3.63;;;3.33;;
17253;SDS011;32542;52.832;13.816;2023-06-26T05:13:10;6.05;;;4.18;;
17253;SDS011;32542;52.832;13.816;2023-06-26T05:16:16;5.47;;;3.70;;
17253;SDS011;32542;52.832;13.816;2023-06-26T05:19:20;4.47;;;3.50;;
17253;SDS011;32542;52.832;13.816;2023-06-26T05:22:23;4.15;;;3.75;;
17253;SDS011;32542;52.832;13.816;2023-06-26T05:25:28;4.50;;;3.70;;
17253;SDS011;32542;52.832;13.816;2023-06-26T05:28:32;4.05;;;3.65;;
17253;SDS011;32542;52.832;13.816;2023-06-26T05:31:38;7.70;;;3.85;;
17253;SDS011;32542;52.832;13.816;2023-06-26T05:34:45;7.15;;;4.15;;
17253;SDS011;32542;52.832;13.816;2023-06-26T05:37:50;5.95;;;4.35;;
17253;SDS011;32542;52.832;13.816;2023-06-26T05:40:54;5.63;;;4.10;;
17253;SDS011;32542;52.832;13.816;2023-06-26T05:43:58;4.57;;;3.90;;
17253;SDS011;32542;52.832;13.816;2023-06-26T05:47:01;5.13;;;3.63;;
17253;SDS011;32542;52.832;13.816;2023-06-26T05:50:06;4.90;;;3.95;;
17253;SDS011;32542;52.832;13.816;2023-06-26T05:53:10;6.78;;;4.13;;
17253;SDS011;32542;52.832;13.816;2023-06-26T05:56:14;5.25;;;3.92;;
17253;SDS011;32542;52.832;13.816;2023-06-26T05:59:17;4.93;;;3.92;;
17253;SDS011;32542;52.832;13.816;2023-06-26T06:02:21;4.95;;;4.10;;
17253;SDS011;32542;52.832;13.816;2023-06-26T06:05:25;7.13;;;4.10;;
17253;SDS011;32542;52.832;13.816;2023-06-26T06:08:28;6.03;;;4.57;;
17253;SDS011;32542;52.832;13.816;2023-06-26T06:11:31;7.72;;;4.30;;
17253;SDS011;32542;52.832;13.816;2023-06-26T06:14:34;7.25;;;4.20;;
17253;SDS011;32542;52.832;13.816;2023-06-26T06:17:37;5.30;;;3.78;;
17253;SDS011;32542;52.832;13.816;2023-06-26T06:20:41;6.38;;;3.95;;
17253;SDS011;32542;52.832;13.816;2023-06-26T06:23:44;7.80;;;5.00;;
17253;SDS011;32542;52.832;13.816;2023-06-26T06:26:47;5.80;;;3.95;;
17253;SDS011;32542;52.832;13.816;2023-06-26T06:29:50;9.25;;;5.05;;
17253;SDS011;32542;52.832;13.816;2023-06-26T06:32:53;9.82;;;5.35;;
17253;SDS011;32542;52.832;13.816;2023-06-26T06:35:57;8.98;;;5.18;;
17253;SDS011;32542;52.832;13.816;2023-06-26T06:39:00;6.10;;;4.68;;
17253;SDS011;32542;52.832;13.816;2023-06-26T06:42:04;7.40;;;5.63;;
17253;SDS011;32542;52.832;13.816;2023-06-26T06:45:07;6.10;;;5.30;;
17253;SDS011;32542;52.832;13.816;2023-06-26T06:48:10;6.55;;;5.18;;
17253;SDS011;32542;52.832;13.816;2023-06-26T06:51:15;5.53;;;4.80;;
17253;SDS011;32542;52.832;13.816;2023-06-26T06:54:18;9.45;;;5.47;;
17253;SDS011;32542;52.832;13.816;2023-06-26T06:57:21;8.40;;;5.88;;
17253;SDS011;32542;52.832;13.816;2023-06-26T07:00:24;6.95;;;5.60;;
17253;SDS011;32542;52.832;13.816;2023-06-26T07:03:28;10.05;;;6.72;;
17253;SDS011;32542;52.832;13.816;2023-06-26T07:06:32;7.18;;;5.88;;
17253;SDS011;32542;52.832;13.816;2023-06-26T07:09:35;7.38;;;6.20;;
17253;SDS011;32542;52.832;13.816;2023-06-26T07:12:38;10.82;;;6.38;;
17253;SDS011;32542;52.832;13.816;2023-06-26T07:15:41;10.32;;;6.30;;
17253;SDS011;32542;52.832;13.816;2023-06-26T07:18:45;9.07;;;6.47;;
17253;SDS011;32542;52.832;13.816;2023-06-26T07:21:49;9.35;;;5.80;;
17253;SDS011;32542;52.832;13.816;2023-06-26T07:24:52;8.20;;;6.00;;
17253;SDS011;32542;52.832;13.816;2023-06-26T07:27:55;7.65;;;5.93;;
17253;SDS011;32542;52.832;13.816;2023-06-26T07:30:58;9.00;;;6.07;;
17253;SDS011;32542;52.832;13.816;2023-06-26T07:34:01;11.82;;;6.68;;
17253;SDS011;32542;52.832;13.816;2023-06-26T07:37:05;8.43;;;6.35;;
17253;SDS011;32542;52.832;13.816;2023-06-26T07:40:09;7.13;;;5.97;;
17253;SDS011;32542;52.832;13.816;2023-06-26T07:43:12;7.30;;;5.78;;
17253;SDS011;32542;52.832;13.816;2023-06-26T07:46:15;8.65;;;6.03;;
17253;SDS011;32542;52.832;13.816;2023-06-26T07:49:18;11.65;;;5.95;;
17253;SDS011;32542;52.832;13.816;2023-06-26T07:52:22;16.00;;;5.65;;
17253;SDS011;32542;52.832;13.816;2023-06-26T07:55:25;13.68;;;5.50;;
17253;SDS011;32542;52.832;13.816;2023-06-26T07:58:28;8.75;;;5.40;;
17253;SDS011;32542;52.832;13.816;2023-06-26T08:01:31;10.93;;;5.35;;
17253;SDS011;32542;52.832;13.816;2023-06-26T08:04:34;8.30;;;5.30;;
17253;SDS011;32542;52.832;13.816;2023-06-26T08:07:39;6.35;;;5.10;;
17253;SDS011;32542;52.832;13.816;2023-06-26T08:10:42;9.63;;;5.20;;
17253;SDS011;32542;52.832;13.816;2023-06-26T08:13:45;10.18;;;5.25;;
17253;SDS011;32542;52.832;13.816;2023-06-26T08:16:47;12.30;;;5.47;;
17253;SDS011;32542;52.832;13.816;2023-06-26T08:19:50;8.20;;;5.72;;
17253;SDS011;32542;52.832;13.816;2023-06-26T08:22:55;9.32;;;5.40;;
17253;SDS011;32542;52.832;13.816;2023-06-26T08:25:58;12.68;;;5.03;;
17253;SDS011;32542;52.832;13.816;2023-06-26T08:29:01;12.07;;;5.10;;
17253;SDS011;32542;52.832;13.816;2023-06-26T08:32:12;6.82;;;5.40;;
17253;SDS011;32542;52.832;13.816;2023-06-26T08:35:15;8.57;;;5.35;;
17253;SDS011;32542;52.832;13.816;2023-06-26T08:38:20;14.75;;;6.15;;
17253;SDS011;32542;52.832;13.816;2023-06-26T08:41:23;6.50;;;5.32;;
17253;SDS011;32542;52.832;13.816;2023-06-26T08:44:26;6.32;;;5.00;;
17253;SDS011;32542;52.832;13.816;2023-06-26T08:47:29;8.93;;;5.45;;
17253;SDS011;32542;52.832;13.816;2023-06-26T08:50:37;8.88;;;4.97;;
17253;SDS011;32542;52.832;13.816;2023-06-26T08:53:46;6.10;;;5.18;;
17253;SDS011;32542;52.832;13.816;2023-06-26T08:56:53;6.82;;;5.50;;
17253;SDS011;32542;52.832;13.816;2023-06-26T08:59:56;9.93;;;5.30;;
17253;SDS011;32542;52.832;13.816;2023-06-26T09:02:59;9.43;;;5.22;;
17253;SDS011;32542;52.832;13.816;2023-06-26T09:06:06;5.88;;;5.07;;
17253;SDS011;32542;52.832;13.816;2023-06-26T09:09:10;7.57;;;5.35;;
17253;SDS011;32542;52.832;13.816;2023-06-26T09:12:14;9.90;;;5.43;;
17253;SDS011;32542;52.832;13.816;2023-06-26T09:15:19;6.65;;;5.20;;
17253;SDS011;32542;52.832;13.816;2023-06-26T09:18:22;7.43;;;5.40;;
17253;SDS011;32542;52.832;13.816;2023-06-26T09:21:25;10.30;;;5.35;;
17253;SDS011;32542;52.832;13.816;2023-06-26T09:24:30;6.63;;;4.75;;
17253;SDS011;32542;52.832;13.816;2023-06-26T09:27:33;7.60;;;5.10;;
17253;SDS011;32542;52.832;13.816;2023-06-26T09:30:36;8.27;;;5.35;;
17253;SDS011;32542;52.832;13.816;2023-06-26T09:33:39;8.85;;;5.40;;
17253;SDS011;32542;52.832;13.816;2023-06-26T09:36:44;7.55;;;5.43;;
17253;SDS011;32542;52.832;13.816;2023-06-26T09:39:51;8.30;;;5.57;;
17253;SDS011;32542;52.832;13.816;2023-06-26T09:42:56;6.68;;;5.35;;
17253;SDS011;32542;52.832;13.816;2023-06-26T09:46:05;7.13;;;5.13;;
17253;SDS011;32542;52.832;13.816;2023-06-26T09:49:09;6.38;;;5.35;;
17253;SDS011;32542;52.832;13.816;2023-06-26T09:52:13;7.30;;;5.25;;
17253;SDS011;32542;52.832;13.816;2023-06-26T09:55:19;6.82;;;5.50;;
17253;SDS011;32542;52.832;13.816;2023-06-26T09:58:24;6.65;;;5.43;;
17253;SDS011;32542;52.832;13.816;2023-06-26T10:01:29;8.25;;;6.45;;
17253;SDS011;32542;52.832;13.816;2023-06-26T10:04:33;8.50;;;5.70;;
17253;SDS011;32542;52.832;13.816;2023-06-26T10:07:38;6.88;;;5.78;;
17253;SDS011;32542;52.832;13.816;2023-06-26T10:10:43;10.10;;;6.03;;
17253;SDS011;32542;52.832;13.816;2023-06-26T10:13:50;6.93;;;5.70;;
17253;SDS011;32542;52.832;13.816;2023-06-26T10:17:15;7.70;;;5.63;;
17253;SDS011;32542;52.832;13.816;2023-06-26T10:20:20;6.50;;;5.10;;
17253;SDS011;32542;52.832;13.816;2023-06-26T10:23:24;10.13;;;5.47;;
17253;SDS011;32542;52.832;13.816;2023-06-26T10:26:30;6.25;;;5.13;;
17253;SDS011;32542;52.832;13.816;2023-06-26T10:29:37;6.55;;;4.82;;
17253;SDS011;32542;52.832;13.816;2023-06-26T10:32:41;7.93;;;5.10;;
17253;SDS011;32542;52.832;13.816;2023-06-26T10:35:45;9.10;;;5.40;;
17253;SDS011;32542;52.832;13.816;2023-06-26T10:38:49;8.38;;;5.00;;
17253;SDS011;32542;52.832;13.816;2023-06-26T10:41:55;7.32;;;4.97;;
17253;SDS011;32542;52.832;13.816;2023-06-26T10:45:11;7.18;;;5.03;;
17253;SDS011;32542;52.832;13.816;2023-06-26T10:48:16;7.82;;;4.93;;
17253;SDS011;32542;52.832;13.816;2023-06-26T10:51:20;7.75;;;5.32;;
17253;SDS011;32542;52.832;13.816;2023-06-26T10:54:23;5.03;;;4.45;;
17253;SDS011;32542;52.832;13.816;2023-06-26T10:57:32;7.18;;;4.80;;
17253;SDS011;32542;52.832;13.816;2023-06-26T11:00:35;6.70;;;5.05;;
17253;SDS011;32542;52.832;13.816;2023-06-26T11:03:38;4.90;;;4.38;;
17253;SDS011;32542;52.832;13.816;2023-06-26T11:06:45;6.93;;;4.80;;
17253;SDS011;32542;52.832;13.816;2023-06-26T11:09:56;8.05;;;6.00;;
17253;SDS011;32542;52.832;13.816;2023-06-26T11:13:02;7.93;;;5.60;;
17253;SDS011;32542;52.832;13.816;2023-06-26T11:16:08;8.80;;;5.00;;
17253;SDS011;32542;52.832;13.816;2023-06-26T11:19:11;7.75;;;5.20;;
17253;SDS011;32542;52.832;13.816;2023-06-26T11:22:16;5.72;;;4.80;;
17253;SDS011;32542;52.832;13.816;2023-06-26T11:25:19;6.28;;;4.88;;
17253;SDS011;32542;52.832;13.816;2023-06-26T11:28:24;11.35;;;5.47;;
17253;SDS011;32542;52.832;13.816;2023-06-26T11:31:29;7.00;;;4.90;;
17253;SDS011;32542;52.832;13.816;2023-06-26T11:34:34;5.45;;;4.55;;
17253;SDS011;32542;52.832;13.816;2023-06-26T11:37:39;6.75;;;5.20;;
17253;SDS011;32542;52.832;13.816;2023-06-26T11:40:42;6.72;;;4.93;;
17253;SDS011;32542;52.832;13.816;2023-06-26T11:43:47;6.28;;;4.88;;
17253;SDS011;32542;52.832;13.816;2023-06-26T11:46:53;7.30;;;4.63;;
17253;SDS011;32542;52.832;13.816;2023-06-26T11:49:57;6.68;;;4.50;;
17253;SDS011;32542;52.832;13.816;2023-06-26T11:53:00;6.78;;;5.07;;
17253;SDS011;32542;52.832;13.816;2023-06-26T11:56:09;6.55;;;4.40;;
17253;SDS011;32542;52.832;13.816;2023-06-26T11:59:14;5.25;;;4.47;;
17253;SDS011;32542;52.832;13.816;2023-06-26T12:02:17;6.30;;;4.30;;
17253;SDS011;32542;52.832;13.816;2023-06-26T12:05:20;7.78;;;4.40;;
17253;SDS011;32542;52.832;13.816;2023-06-26T12:08:23;5.30;;;4.47;;
17253;SDS011;32542;52.832;13.816;2023-06-26T12:11:26;6.88;;;4.28;;
17253;SDS011;32542;52.832;13.816;2023-06-26T12:14:33;6.00;;;4.80;;
17253;SDS011;32542;52.832;13.816;2023-06-26T12:17:37;8.35;;;5.10;;
17253;SDS011;32542;52.832;13.816;2023-06-26T12:20:41;7.65;;;4.68;;
17253;SDS011;32542;52.832;13.816;2023-06-26T12:23:44;5.78;;;4.97;;
17253;SDS011;32542;52.832;13.816;2023-06-26T12:26:48;6.32;;;4.82;;
17253;SDS011;32542;52.832;13.816;2023-06-26T12:29:56;6.38;;;5.10;;
17253;SDS011;32542;52.832;13.816;2023-06-26T12:32:59;6.15;;;4.90;;
17253;SDS011;32542;52.832;13.816;2023-06-26T12:36:02;9.20;;;4.90;;
17253;SDS011;32542;52.832;13.816;2023-06-26T12:39:08;7.68;;;5.20;;
17253;SDS011;32542;52.832;13.816;2023-06-26T12:42:13;6.68;;;5.22;;
17253;SDS011;32542;52.832;13.816;2023-06-26T12:45:18;6.60;;;5.22;;
17253;SDS011;32542;52.832;13.816;2023-06-26T12:48:35;5.82;;;4.90;;
17253;SDS011;32542;52.832;13.816;2023-06-26T12:51:39;6.82;;;5.47;;
17253;SDS011;32542;52.832;13.816;2023-06-26T12:54:44;7.90;;;5.03;;
17253;SDS011;32542;52.832;13.816;2023-06-26T12:57:48;7.20;;;5.30;;
17253;SDS011;32542;52.832;13.816;2023-06-26T13:00:53;7.82;;;5.13;;
17253;SDS011;32542;52.832;13.816;2023-06-26T13:03:59;6.38;;;4.85;;
17253;SDS011;32542;52.832;13.816;2023-06-26T13:07:02;6.25;;;5.20;;
17253;SDS011;32542;52.832;13.816;2023-06-26T13:10:06;8.82;;;5.30;;
17253;SDS011;32542;52.832;13.816;2023-06-26T13:13:09;11.55;;;5.28;;
17253;SDS011;32542;52.832;13.816;2023-06-26T13:16:14;8.32;;;5.25;;
17253;SDS011;32542;52.832;13.816;2023-06-26T13:19:17;6.65;;;4.95;;
17253;SDS011;32542;52.832;13.816;2023-06-26T13:22:20;7.22;;;5.00;;
17253;SDS011;32542;52.832;13.816;2023-06-26T13:25:23;6.80;;;5.50;;
17253;SDS011;32542;52.832;13.816;2023-06-26T13:28:26;6.70;;;4.80;;
17253;SDS011;32542;52.832;13.816;2023-06-26T13:31:30;7.40;;;5.10;;
17253;SDS011;32542;52.832;13.816;2023-06-26T13:34:33;6.60;;;5.05;;
17253;SDS011;32542;52.832;13.816;2023-06-26T13:37:36;6.28;;;5.00;;
17253;SDS011;32542;52.832;13.816;2023-06-26T13:40:39;6.03;;;4.95;;
17253;SDS011;32542;52.832;13.816;2023-06-26T13:43:42;6.18;;;5.18;;
17253;SDS011;32542;52.832;13.816;2023-06-26T13:46:47;7.22;;;4.68;;
17253;SDS011;32542;52.832;13.816;2023-06-26T13:49:50;6.53;;;5.13;;
17253;SDS011;32542;52.832;13.816;2023-06-26T13:52:53;8.57;;;5.10;;
17253;SDS011;32542;52.832;13.816;2023-06-26T13:55:56;5.75;;;4.80;;
17253;SDS011;32542;52.832;13.816;2023-06-26T13:58:59;7.32;;;5.40;;
17253;SDS011;32542;52.832;13.816;2023-06-26T14:02:03;9.02;;;5.20;;
17253;SDS011;32542;52.832;13.816;2023-06-26T14:05:08;7.78;;;5.18;;
17253;SDS011;32542;52.832;13.816;2023-06-26T14:08:12;5.25;;;4.65;;
17253;SDS011;32542;52.832;13.816;2023-06-26T14:11:16;6.75;;;5.25;;
17253;SDS011;32542;52.832;13.816;2023-06-26T14:14:19;8.10;;;4.85;;
17253;SDS011;32542;52.832;13.816;2023-06-26T14:17:24;7.80;;;5.30;;
17253;SDS011;32542;52.832;13.816;2023-06-26T14:20:27;9.40;;;5.57;;
17253;SDS011;32542;52.832;13.816;2023-06-26T14:23:30;10.82;;;6.40;;
17253;SDS011;32542;52.832;13.816;2023-06-26T14:26:33;6.45;;;5.63;;
17253;SDS011;32542;52.832;13.816;2023-06-26T14:29:38;7.75;;;5.28;;
17253;SDS011;32542;52.832;13.816;2023-06-26T14:32:42;9.75;;;5.35;;
17253;SDS011;32542;52.832;13.816;2023-06-26T14:35:45;6.90;;;5.63;;
17253;SDS011;32542;52.832;13.816;2023-06-26T14:38:48;8.45;;;5.35;;
17253;SDS011;32542;52.832;13.816;2023-06-26T14:41:51;9.25;;;5.38;;
17253;SDS011;32542;52.832;13.816;2023-06-26T14:44:55;11.55;;;5.88;;
17253;SDS011;32542;52.832;13.816;2023-06-26T14:48:00;10.43;;;5.38;;
17253;SDS011;32542;52.832;13.816;2023-06-26T14:51:03;13.02;;;4.90;;
17253;SDS011;32542;52.832;13.816;2023-06-26T14:54:06;16.35;;;4.82;;
17253;SDS011;32542;52.832;13.816;2023-06-26T14:57:11;9.13;;;4.13;;
17253;SDS011;32542;52.832;13.816;2023-06-26T15:00:14;15.10;;;4.57;;
17253;SDS011;32542;52.832;13.816;2023-06-26T15:03:19;11.65;;;4.78;;
17253;SDS011;32542;52.832;13.816;2023-06-26T15:06:22;11.30;;;4.63;;
17253;SDS011;32542;52.832;13.816;2023-06-26T15:09:25;13.07;;;4.50;;
17253;SDS011;32542;52.832;13.816;2023-06-26T15:12:28;13.95;;;4.30;;
17253;SDS011;32542;52.832;13.816;2023-06-26T15:15:31;12.60;;;5.22;;
17253;SDS011;32542;52.832;13.816;2023-06-26T15:18:35;17.10;;;4.40;;
17253;SDS011;32542;52.832;13.816;2023-06-26T15:21:38;11.75;;;4.57;;
17253;SDS011;32542;52.832;13.816;2023-06-26T15:24:43;17.63;;;4.70;;
17253;SDS011;32542;52.832;13.816;2023-06-26T15:27:46;13.43;;;4.88;;
17253;SDS011;32542;52.832;13.816;2023-06-26T15:30:49;10.80;;;4.43;;
17253;SDS011;32542;52.832;13.816;2023-06-26T15:33:53;9.75;;;5.00;;
17253;SDS011;32542;52.832;13.816;2023-06-26T15:36:57;8.70;;;4.53;;
17253;SDS011;32542;52.832;13.816;2023-06-26T15:39:59;8.55;;;4.43;;
17253;SDS011;32542;52.832;13.816;2023-06-26T15:43:02;8.80;;;4.25;;
17253;SDS011;32542;52.832;13.816;2023-06-26T15:46:05;9.73;;;4.10;;
17253;SDS011;32542;52.832;13.816;2023-06-26T15:49:10;7.38;;;4.55;;
17253;SDS011;32542;52.832;13.816;2023-06-26T15:52:13;8.27;;;4.43;;
17253;SDS011;32542;52.832;13.816;2023-06-26T15:55:16;7.10;;;4.60;;
17253;SDS011;32542;52.832;13.816;2023-06-26T15:58:19;14.23;;;4.78;;
17253;SDS011;32542;52.832;13.816;2023-06-26T16:01:22;8.70;;;4.63;;
17253;SDS011;32542;52.832;13.816;2023-06-26T16:04:27;7.65;;;4.32;;
17253;SDS011;32542;52.832;13.816;2023-06-26T16:07:32;12.00;;;5.13;;
17253;SDS011;32542;52.832;13.816;2023-06-26T16:10:55;10.65;;;5.47;;
17253;SDS011;32542;52.832;13.816;2023-06-26T16:13:58;8.52;;;4.80;;
17253;SDS011;32542;52.832;13.816;2023-06-26T16:17:01;10.88;;;4.72;;
17253;SDS011;32542;52.832;13.816;2023-06-26T16:20:09;11.80;;;4.13;;
17253;SDS011;32542;52.832;13.816;2023-06-26T16:23:13;8.90;;;4.50;;
17253;SDS011;32542;52.832;13.816;2023-06-26T16:26:16;7.50;;;4.45;;
17253;SDS011;32542;52.832;13.816;2023-06-26T16:29:19;8.50;;;4.00;;
17253;SDS011;32542;52.832;13.816;2023-06-26T16:32:22;8.07;;;5.03;;
17253;SDS011;32542;52.832;13.816;2023-06-26T16:35:27;11.18;;;4.65;;
17253;SDS011;32542;52.832;13.816;2023-06-26T16:38:31;8.02;;;4.45;;
17253;SDS011;32542;52.832;13.816;2023-06-26T16:41:34;8.98;;;4.68;;
17253;SDS011;32542;52.832;13.816;2023-06-26T16:44:37;10.27;;;5.28;;
17253;SDS011;32542;52.832;13.816;2023-06-26T16:47:40;9.68;;;5.28;;
17253;SDS011;32542;52.832;13.816;2023-06-26T16:50:44;8.63;;;5.35;;
17253;SDS011;32542;52.832;13.816;2023-06-26T16:53:48;8.50;;;5.20;;
17253;SDS011;32542;52.832;13.816;2023-06-26T16:56:51;6.68;;;4.80;;
17253;SDS011;32542;52.832;13.816;2023-06-26T16:59:54;9.45;;;5.07;;
17253;SDS011;32542;52.832;13.816;2023-06-26T17:02:57;6.15;;;4.90;;
17253;SDS011;32542;52.832;13.816;2023-06-26T17:06:02;10.52;;;5.13;;
17253;SDS011;32542;52.832;13.816;2023-06-26T17:09:08;7.20;;;5.13;;
17253;SDS011;32542;52.832;13.816;2023-06-26T17:12:11;9.27;;;4.47;;
17253;SDS011;32542;52.832;13.816;2023-06-26T17:15:14;9.20;;;5.15;;
17253;SDS011;32542;52.832;13.816;2023-06-26T17:18:17;11.27;;;5.80;;
17253;SDS011;32542;52.832;13.816;2023-06-26T17:21:22;8.88;;;5.35;;
17253;SDS011;32542;52.832;13.816;2023-06-26T17:24:24;8.20;;;5.38;;
17253;SDS011;32542;52.832;13.816;2023-06-26T17:27:28;11.15;;;5.30;;
17253;SDS011;32542;52.832;13.816;2023-06-26T17:30:31;6.43;;;4.90;;
17253;SDS011;32542;52.832;13.816;2023-06-26T17:33:34;10.35;;;5.75;;
17253;SDS011;32542;52.832;13.816;2023-06-26T17:36:39;12.07;;;5.07;;
17253;SDS011;32542;52.832;13.816;2023-06-26T17:39:44;14.80;;;5.22;;
17253;SDS011;32542;52.832;13.816;2023-06-26T17:42:47;13.07;;;5.43;;
17253;SDS011;32542;52.832;13.816;2023-06-26T17:45:50;19.05;;;6.28;;
17253;SDS011;32542;52.832;13.816;2023-06-26T17:48:53;11.63;;;5.85;;
17253;SDS011;32542;52.832;13.816;2023-06-26T17:51:58;11.18;;;5.85;;
17253;SDS011;32542;52.832;13.816;2023-06-26T17:55:01;12.07;;;5.50;;
17253;SDS011;32542;52.832;13.816;2023-06-26T17:58:05;13.07;;;6.05;;
17253;SDS011;32542;52.832;13.816;2023-06-26T18:01:08;11.13;;;5.95;;
17253;SDS011;32542;52.832;13.816;2023-06-26T18:04:11;10.23;;;5.45;;
17253;SDS011;32542;52.832;13.816;2023-06-26T18:07:15;9.45;;;5.55;;
17253;SDS011;32542;52.832;13.816;2023-06-26T18:10:19;8.55;;;5.40;;
17253;SDS011;32542;52.832;13.816;2023-06-26T18:13:22;9.00;;;5.32;;